sensor_id;sensor_type;location;lat;lon;timestamp;P1;durP1;ratioP1;P2;durP2;ratioP2
51558;SDS011;61650;48.882;2.092;2022-09-09T00:00:28;7.93;;;2.30;;
51558;SDS011;61650;48.882;2.092;2022-09-09T00:03:23;3.93;;;2.00;;
51558;SDS011;61650;48.882;2.092;2022-09-09T00:05:59;5.60;;;2.00;;
51558;SDS011;61650;48.882;2.092;2022-09-09T00:08:37;6.83;;;2.67;;
51558;SDS011;61650;48.882;2.092;2022-09-09T00:11:08;7.30;;;2.50;;
51558;SDS011;61650;48.882;2.092;2022-09-09T00:13:39;4.40;;;1.90;;
51558;SDS011;61650;48.882;2.092;2022-09-09T00:16:16;6.93;;;2.60;;
51558;SDS011;61650;48.882;2.092;2022-09-09T00:21:19;7.50;;;2.50;;
51558;SDS011;61650;48.882;2.092;2022-09-09T00:23:56;8.10;;;1.87;;
51558;SDS011;61650;48.882;2.092;2022-09-09T00:31:37;5.10;;;1.90;;
51558;SDS011;61650;48.882;2.092;2022-09-09T00:34:14;5.67;;;2.10;;
51558;SDS011;61650;48.882;2.092;2022-09-09T00:36:44;6.13;;;2.20;;
51558;SDS011;61650;48.882;2.092;2022-09-09T00:42:15;4.20;;;2.30;;
51558;SDS011;61650;48.882;2.092;2022-09-09T00:47:46;7.83;;;2.27;;
51558;SDS011;61650;48.882;2.092;2022-09-09T00:50:17;6.17;;;2.40;;
51558;SDS011;61650;48.882;2.092;2022-09-09T00:58:40;6.23;;;2.13;;
51558;SDS011;61650;48.882;2.092;2022-09-09T01:01:15;7.50;;;2.40;;
51558;SDS011;61650;48.882;2.092;2022-09-09T01:04:16;5.17;;;2.00;;
51558;SDS011;61650;48.882;2.092;2022-09-09T01:06:43;7.03;;;2.73;;
51558;SDS011;61650;48.882;2.092;2022-09-09T01:09:33;5.93;;;2.60;;
51558;SDS011;61650;48.882;2.092;2022-09-09T01:12:17;8.47;;;2.53;;
51558;SDS011;61650;48.882;2.092;2022-09-09T01:15:08;8.13;;;2.93;;
51558;SDS011;61650;48.882;2.092;2022-09-09T01:17:50;5.43;;;2.13;;
51558;SDS011;61650;48.882;2.092;2022-09-09T01:20:53;7.87;;;2.57;;
51558;SDS011;61650;48.882;2.092;2022-09-09T01:28:52;5.47;;;2.50;;
51558;SDS011;61650;48.882;2.092;2022-09-09T01:31:28;7.03;;;3.00;;
51558;SDS011;61650;48.882;2.092;2022-09-09T01:34:01;7.00;;;2.60;;
51558;SDS011;61650;48.882;2.092;2022-09-09T01:36:38;5.13;;;2.20;;
51558;SDS011;61650;48.882;2.092;2022-09-09T01:39:10;7.17;;;2.40;;
51558;SDS011;61650;48.882;2.092;2022-09-09T01:41:36;5.40;;;2.40;;
51558;SDS011;61650;48.882;2.092;2022-09-09T01:44:02;8.47;;;2.80;;
51558;SDS011;61650;48.882;2.092;2022-09-09T01:46:29;6.87;;;2.70;;
51558;SDS011;61650;48.882;2.092;2022-09-09T01:48:55;5.50;;;2.60;;
51558;SDS011;61650;48.882;2.092;2022-09-09T01:51:22;9.83;;;2.90;;
51558;SDS011;61650;48.882;2.092;2022-09-09T01:53:48;7.03;;;2.50;;
51558;SDS011;61650;48.882;2.092;2022-09-09T01:59:02;5.70;;;3.33;;
51558;SDS011;61650;48.882;2.092;2022-09-09T02:07:01;5.23;;;2.60;;
51558;SDS011;61650;48.882;2.092;2022-09-09T02:09:27;6.33;;;2.77;;
51558;SDS011;61650;48.882;2.092;2022-09-09T02:12:16;8.43;;;2.67;;
51558;SDS011;61650;48.882;2.092;2022-09-09T02:14:46;7.23;;;2.63;;
51558;SDS011;61650;48.882;2.092;2022-09-09T02:17:19;5.67;;;2.27;;
51558;SDS011;61650;48.882;2.092;2022-09-09T02:19:54;7.93;;;2.40;;
51558;SDS011;61650;48.882;2.092;2022-09-09T02:22:27;6.90;;;2.40;;
51558;SDS011;61650;48.882;2.092;2022-09-09T02:24:56;6.60;;;2.90;;
51558;SDS011;61650;48.882;2.092;2022-09-09T02:27:24;10.33;;;2.57;;
51558;SDS011;61650;48.882;2.092;2022-09-09T02:29:50;7.77;;;2.60;;
51558;SDS011;61650;48.882;2.092;2022-09-09T02:32:19;3.60;;;2.03;;
51558;SDS011;61650;48.882;2.092;2022-09-09T02:34:49;9.53;;;2.13;;
51558;SDS011;61650;48.882;2.092;2022-09-09T02:37:23;8.87;;;2.20;;
51558;SDS011;61650;48.882;2.092;2022-09-09T02:39:53;5.27;;;2.47;;
51558;SDS011;61650;48.882;2.092;2022-09-09T02:42:19;5.30;;;2.47;;
51558;SDS011;61650;48.882;2.092;2022-09-09T02:44:45;6.93;;;2.90;;
51558;SDS011;61650;48.882;2.092;2022-09-09T02:50:03;8.23;;;2.90;;
51558;SDS011;61650;48.882;2.092;2022-09-09T02:55:32;6.70;;;3.10;;
51558;SDS011;61650;48.882;2.092;2022-09-09T02:58:03;8.30;;;2.70;;
51558;SDS011;61650;48.882;2.092;2022-09-09T03:00:32;5.30;;;2.30;;
51558;SDS011;61650;48.882;2.092;2022-09-09T03:02:59;7.53;;;3.00;;
51558;SDS011;61650;48.882;2.092;2022-09-09T03:05:24;9.20;;;2.63;;
51558;SDS011;61650;48.882;2.092;2022-09-09T03:07:51;6.70;;;2.70;;
51558;SDS011;61650;48.882;2.092;2022-09-09T03:10:17;8.40;;;2.47;;
51558;SDS011;61650;48.882;2.092;2022-09-09T03:12:42;4.60;;;2.20;;
51558;SDS011;61650;48.882;2.092;2022-09-09T03:15:08;6.37;;;2.50;;
51558;SDS011;61650;48.882;2.092;2022-09-09T03:17:34;5.50;;;2.50;;
51558;SDS011;61650;48.882;2.092;2022-09-09T03:20:01;5.27;;;2.27;;
51558;SDS011;61650;48.882;2.092;2022-09-09T03:22:27;9.00;;;2.57;;
51558;SDS011;61650;48.882;2.092;2022-09-09T03:24:53;6.90;;;2.30;;
51558;SDS011;61650;48.882;2.092;2022-09-09T03:27:19;7.03;;;2.60;;
51558;SDS011;61650;48.882;2.092;2022-09-09T03:29:45;8.47;;;2.77;;
51558;SDS011;61650;48.882;2.092;2022-09-09T03:32:11;8.43;;;2.70;;
51558;SDS011;61650;48.882;2.092;2022-09-09T03:34:37;7.80;;;2.83;;
51558;SDS011;61650;48.882;2.092;2022-09-09T03:37:05;6.00;;;2.90;;
51558;SDS011;61650;48.882;2.092;2022-09-09T03:39:31;4.77;;;2.10;;
51558;SDS011;61650;48.882;2.092;2022-09-09T03:41:57;6.97;;;3.07;;
51558;SDS011;61650;48.882;2.092;2022-09-09T03:44:23;7.70;;;2.17;;
51558;SDS011;61650;48.882;2.092;2022-09-09T03:46:48;4.23;;;2.10;;
51558;SDS011;61650;48.882;2.092;2022-09-09T03:49:14;10.97;;;3.20;;
51558;SDS011;61650;48.882;2.092;2022-09-09T03:51:40;6.47;;;2.63;;
51558;SDS011;61650;48.882;2.092;2022-09-09T03:54:06;6.90;;;3.00;;
51558;SDS011;61650;48.882;2.092;2022-09-09T03:56:35;6.63;;;2.77;;
51558;SDS011;61650;48.882;2.092;2022-09-09T03:59:01;7.90;;;2.60;;
51558;SDS011;61650;48.882;2.092;2022-09-09T04:01:28;6.67;;;2.33;;
51558;SDS011;61650;48.882;2.092;2022-09-09T04:03:53;6.87;;;2.80;;
51558;SDS011;61650;48.882;2.092;2022-09-09T04:06:20;5.23;;;2.33;;
51558;SDS011;61650;48.882;2.092;2022-09-09T04:08:46;8.97;;;2.73;;
51558;SDS011;61650;48.882;2.092;2022-09-09T04:11:14;10.03;;;2.90;;
51558;SDS011;61650;48.882;2.092;2022-09-09T04:13:40;8.80;;;2.80;;
51558;SDS011;61650;48.882;2.092;2022-09-09T04:16:06;7.13;;;2.90;;
51558;SDS011;61650;48.882;2.092;2022-09-09T04:18:34;5.37;;;2.63;;
51558;SDS011;61650;48.882;2.092;2022-09-09T04:21:00;6.00;;;2.50;;
51558;SDS011;61650;48.882;2.092;2022-09-09T04:23:26;5.40;;;2.67;;
51558;SDS011;61650;48.882;2.092;2022-09-09T04:25:54;6.40;;;2.47;;
51558;SDS011;61650;48.882;2.092;2022-09-09T04:28:22;4.10;;;2.20;;
51558;SDS011;61650;48.882;2.092;2022-09-09T04:30:49;5.73;;;2.67;;
51558;SDS011;61650;48.882;2.092;2022-09-09T04:33:15;6.80;;;2.77;;
51558;SDS011;61650;48.882;2.092;2022-09-09T04:35:46;7.00;;;2.40;;
51558;SDS011;61650;48.882;2.092;2022-09-09T04:38:13;8.43;;;2.87;;
51558;SDS011;61650;48.882;2.092;2022-09-09T04:40:38;3.33;;;2.40;;
51558;SDS011;61650;48.882;2.092;2022-09-09T04:43:08;8.67;;;3.13;;
51558;SDS011;61650;48.882;2.092;2022-09-09T04:45:34;13.60;;;3.40;;
51558;SDS011;61650;48.882;2.092;2022-09-09T04:47:59;7.30;;;2.10;;
51558;SDS011;61650;48.882;2.092;2022-09-09T04:50:25;8.50;;;2.90;;
51558;SDS011;61650;48.882;2.092;2022-09-09T04:52:51;7.17;;;2.40;;
51558;SDS011;61650;48.882;2.092;2022-09-09T04:55:17;6.60;;;2.70;;
51558;SDS011;61650;48.882;2.092;2022-09-09T04:57:42;8.73;;;2.70;;
51558;SDS011;61650;48.882;2.092;2022-09-09T05:00:08;8.40;;;2.53;;
51558;SDS011;61650;48.882;2.092;2022-09-09T05:02:38;8.10;;;3.23;;
51558;SDS011;61650;48.882;2.092;2022-09-09T05:05:05;8.97;;;3.93;;
51558;SDS011;61650;48.882;2.092;2022-09-09T05:07:31;5.90;;;2.83;;
51558;SDS011;61650;48.882;2.092;2022-09-09T05:09:57;7.93;;;3.13;;
51558;SDS011;61650;48.882;2.092;2022-09-09T05:12:23;8.20;;;2.90;;
51558;SDS011;61650;48.882;2.092;2022-09-09T05:14:50;8.10;;;2.67;;
51558;SDS011;61650;48.882;2.092;2022-09-09T05:17:19;8.80;;;3.43;;
51558;SDS011;61650;48.882;2.092;2022-09-09T05:19:44;9.83;;;5.13;;
51558;SDS011;61650;48.882;2.092;2022-09-09T05:22:10;10.60;;;4.93;;
51558;SDS011;61650;48.882;2.092;2022-09-09T05:24:39;9.10;;;4.77;;
51558;SDS011;61650;48.882;2.092;2022-09-09T05:27:05;7.53;;;4.60;;
51558;SDS011;61650;48.882;2.092;2022-09-09T05:29:31;8.90;;;3.73;;
51558;SDS011;61650;48.882;2.092;2022-09-09T05:31:58;5.57;;;2.50;;
51558;SDS011;61650;48.882;2.092;2022-09-09T05:34:25;9.10;;;3.50;;
51558;SDS011;61650;48.882;2.092;2022-09-09T05:36:50;8.47;;;3.60;;
51558;SDS011;61650;48.882;2.092;2022-09-09T05:39:18;8.20;;;3.13;;
51558;SDS011;61650;48.882;2.092;2022-09-09T05:41:44;4.67;;;2.43;;
51558;SDS011;61650;48.882;2.092;2022-09-09T05:44:10;6.50;;;3.03;;
51558;SDS011;61650;48.882;2.092;2022-09-09T05:46:35;8.20;;;2.40;;
51558;SDS011;61650;48.882;2.092;2022-09-09T05:49:01;7.00;;;2.57;;
51558;SDS011;61650;48.882;2.092;2022-09-09T05:51:28;7.23;;;2.40;;
51558;SDS011;61650;48.882;2.092;2022-09-09T05:53:55;9.03;;;2.70;;
51558;SDS011;61650;48.882;2.092;2022-09-09T05:56:23;9.87;;;2.70;;
51558;SDS011;61650;48.882;2.092;2022-09-09T05:58:51;6.47;;;2.60;;
51558;SDS011;61650;48.882;2.092;2022-09-09T06:03:46;8.53;;;3.17;;
51558;SDS011;61650;48.882;2.092;2022-09-09T06:06:14;5.53;;;2.47;;
51558;SDS011;61650;48.882;2.092;2022-09-09T06:08:45;4.60;;;2.77;;
51558;SDS011;61650;48.882;2.092;2022-09-09T06:11:12;4.73;;;2.27;;
51558;SDS011;61650;48.882;2.092;2022-09-09T06:13:40;9.57;;;2.63;;
51558;SDS011;61650;48.882;2.092;2022-09-09T06:16:13;7.07;;;2.93;;
51558;SDS011;61650;48.882;2.092;2022-09-09T06:18:42;5.50;;;2.30;;
51558;SDS011;61650;48.882;2.092;2022-09-09T06:21:09;5.60;;;2.47;;
51558;SDS011;61650;48.882;2.092;2022-09-09T06:23:41;7.40;;;3.20;;
51558;SDS011;61650;48.882;2.092;2022-09-09T06:26:11;5.93;;;2.43;;
51558;SDS011;61650;48.882;2.092;2022-09-09T06:28:38;5.37;;;2.47;;
51558;SDS011;61650;48.882;2.092;2022-09-09T06:31:05;6.10;;;2.27;;
51558;SDS011;61650;48.882;2.092;2022-09-09T06:33:36;4.10;;;2.40;;
51558;SDS011;61650;48.882;2.092;2022-09-09T06:36:11;5.97;;;2.90;;
51558;SDS011;61650;48.882;2.092;2022-09-09T06:38:38;5.50;;;2.50;;
51558;SDS011;61650;48.882;2.092;2022-09-09T06:41:04;11.07;;;3.50;;
51558;SDS011;61650;48.882;2.092;2022-09-09T06:43:31;11.20;;;2.93;;
51558;SDS011;61650;48.882;2.092;2022-09-09T06:45:58;7.00;;;2.70;;
51558;SDS011;61650;48.882;2.092;2022-09-09T06:48:29;6.37;;;2.50;;
51558;SDS011;61650;48.882;2.092;2022-09-09T06:53:40;5.40;;;1.90;;
51558;SDS011;61650;48.882;2.092;2022-09-09T06:58:41;2.90;;;2.00;;
51558;SDS011;61650;48.882;2.092;2022-09-09T07:01:14;5.70;;;2.73;;
51558;SDS011;61650;48.882;2.092;2022-09-09T07:03:42;6.10;;;1.70;;
51558;SDS011;61650;48.882;2.092;2022-09-09T07:06:16;8.10;;;3.20;;
51558;SDS011;61650;48.882;2.092;2022-09-09T07:08:43;5.30;;;2.23;;
51558;SDS011;61650;48.882;2.092;2022-09-09T07:11:24;4.63;;;2.00;;
51558;SDS011;61650;48.882;2.092;2022-09-09T07:13:52;3.30;;;2.10;;
51558;SDS011;61650;48.882;2.092;2022-09-09T07:16:19;7.10;;;2.63;;
51558;SDS011;61650;48.882;2.092;2022-09-09T07:18:45;8.00;;;2.30;;
51558;SDS011;61650;48.882;2.092;2022-09-09T07:21:12;6.37;;;2.70;;
51558;SDS011;61650;48.882;2.092;2022-09-09T07:23:39;4.30;;;2.40;;
51558;SDS011;61650;48.882;2.092;2022-09-09T07:28:35;6.13;;;2.03;;
51558;SDS011;61650;48.882;2.092;2022-09-09T07:31:01;6.00;;;1.93;;
51558;SDS011;61650;48.882;2.092;2022-09-09T07:33:28;5.13;;;2.13;;
51558;SDS011;61650;48.882;2.092;2022-09-09T07:36:02;6.60;;;2.47;;
51558;SDS011;61650;48.882;2.092;2022-09-09T07:38:39;4.67;;;2.10;;
51558;SDS011;61650;48.882;2.092;2022-09-09T07:41:17;4.93;;;2.00;;
51558;SDS011;61650;48.882;2.092;2022-09-09T07:43:45;4.10;;;2.13;;
51558;SDS011;61650;48.882;2.092;2022-09-09T07:46:12;6.53;;;2.23;;
51558;SDS011;61650;48.882;2.092;2022-09-09T07:48:43;4.13;;;1.97;;
51558;SDS011;61650;48.882;2.092;2022-09-09T07:51:11;9.50;;;2.30;;
51558;SDS011;61650;48.882;2.092;2022-09-09T07:53:43;5.13;;;2.00;;
51558;SDS011;61650;48.882;2.092;2022-09-09T07:56:10;5.37;;;1.80;;
51558;SDS011;61650;48.882;2.092;2022-09-09T07:58:37;4.80;;;2.40;;
51558;SDS011;61650;48.882;2.092;2022-09-09T08:01:08;4.47;;;2.20;;
51558;SDS011;61650;48.882;2.092;2022-09-09T08:03:42;5.13;;;1.87;;
51558;SDS011;61650;48.882;2.092;2022-09-09T08:06:09;5.97;;;1.90;;
51558;SDS011;61650;48.882;2.092;2022-09-09T08:08:37;3.90;;;2.10;;
51558;SDS011;61650;48.882;2.092;2022-09-09T08:13:32;4.27;;;1.90;;
51558;SDS011;61650;48.882;2.092;2022-09-09T08:16:11;4.00;;;1.80;;
51558;SDS011;61650;48.882;2.092;2022-09-09T08:18:38;2.03;;;1.40;;
51558;SDS011;61650;48.882;2.092;2022-09-09T08:21:05;6.50;;;2.20;;
51558;SDS011;61650;48.882;2.092;2022-09-09T08:23:40;4.97;;;1.97;;
51558;SDS011;61650;48.882;2.092;2022-09-09T08:26:10;2.80;;;1.93;;
51558;SDS011;61650;48.882;2.092;2022-09-09T08:28:38;5.30;;;1.70;;
51558;SDS011;61650;48.882;2.092;2022-09-09T08:31:09;6.17;;;2.20;;
51558;SDS011;61650;48.882;2.092;2022-09-09T08:33:39;6.93;;;2.00;;
51558;SDS011;61650;48.882;2.092;2022-09-09T08:36:06;6.00;;;2.20;;
51558;SDS011;61650;48.882;2.092;2022-09-09T08:38:34;6.97;;;2.00;;
51558;SDS011;61650;48.882;2.092;2022-09-09T08:41:03;5.10;;;2.00;;
51558;SDS011;61650;48.882;2.092;2022-09-09T08:43:39;5.83;;;2.03;;
51558;SDS011;61650;48.882;2.092;2022-09-09T08:46:16;3.40;;;1.70;;
51558;SDS011;61650;48.882;2.092;2022-09-09T08:48:52;2.80;;;1.40;;
51558;SDS011;61650;48.882;2.092;2022-09-09T08:51:24;4.30;;;1.63;;
51558;SDS011;61650;48.882;2.092;2022-09-09T08:53:52;3.27;;;1.80;;
51558;SDS011;61650;48.882;2.092;2022-09-09T08:56:23;2.80;;;2.00;;
51558;SDS011;61650;48.882;2.092;2022-09-09T08:58:52;4.30;;;1.70;;
51558;SDS011;61650;48.882;2.092;2022-09-09T09:12:19;6.13;;;1.80;;
51558;SDS011;61650;48.882;2.092;2022-09-09T09:14:49;5.00;;;1.80;;
51558;SDS011;61650;48.882;2.092;2022-09-09T09:17:19;3.90;;;1.83;;
51558;SDS011;61650;48.882;2.092;2022-09-09T09:19:46;2.83;;;1.60;;
51558;SDS011;61650;48.882;2.092;2022-09-09T09:27:34;3.70;;;1.60;;
51558;SDS011;61650;48.882;2.092;2022-09-09T09:30:15;5.50;;;2.07;;
51558;SDS011;61650;48.882;2.092;2022-09-09T09:32:54;2.80;;;1.67;;
51558;SDS011;61650;48.882;2.092;2022-09-09T09:35:23;3.73;;;1.80;;
51558;SDS011;61650;48.882;2.092;2022-09-09T09:37:49;7.47;;;1.60;;
51558;SDS011;61650;48.882;2.092;2022-09-09T09:40:19;3.80;;;1.43;;
51558;SDS011;61650;48.882;2.092;2022-09-09T09:45:46;2.83;;;1.40;;
51558;SDS011;61650;48.882;2.092;2022-09-09T09:48:12;2.93;;;2.10;;
51558;SDS011;61650;48.882;2.092;2022-09-09T09:53:32;3.20;;;1.50;;
51558;SDS011;61650;48.882;2.092;2022-09-09T09:58:52;2.70;;;1.80;;
51558;SDS011;61650;48.882;2.092;2022-09-09T10:01:29;5.13;;;1.93;;
51558;SDS011;61650;48.882;2.092;2022-09-09T10:04:02;3.17;;;1.77;;
51558;SDS011;61650;48.882;2.092;2022-09-09T10:06:45;3.80;;;1.77;;
51558;SDS011;61650;48.882;2.092;2022-09-09T10:09:44;4.13;;;1.80;;
51558;SDS011;61650;48.882;2.092;2022-09-09T10:15:34;5.20;;;1.73;;
51558;SDS011;61650;48.882;2.092;2022-09-09T10:23:42;5.03;;;1.57;;
51558;SDS011;61650;48.882;2.092;2022-09-09T10:31:53;4.20;;;1.40;;
51558;SDS011;61650;48.882;2.092;2022-09-09T10:37:36;2.60;;;1.30;;
51558;SDS011;61650;48.882;2.092;2022-09-09T10:40:28;3.20;;;1.80;;
51558;SDS011;61650;48.882;2.092;2022-09-09T10:42:58;5.43;;;1.60;;
51558;SDS011;61650;48.882;2.092;2022-09-09T10:45:46;4.03;;;1.60;;
51558;SDS011;61650;48.882;2.092;2022-09-09T10:48:24;4.33;;;1.50;;
51558;SDS011;61650;48.882;2.092;2022-09-09T10:51:11;4.23;;;1.60;;
51558;SDS011;61650;48.882;2.092;2022-09-09T10:53:58;2.50;;;1.60;;
51558;SDS011;61650;48.882;2.092;2022-09-09T10:56:31;4.00;;;1.70;;
51558;SDS011;61650;48.882;2.092;2022-09-09T11:01:32;3.33;;;1.30;;
51558;SDS011;61650;48.882;2.092;2022-09-09T11:06:47;3.27;;;1.53;;
51558;SDS011;61650;48.882;2.092;2022-09-09T11:09:18;2.67;;;1.70;;
51558;SDS011;61650;48.882;2.092;2022-09-09T11:11:55;7.20;;;2.10;;
51558;SDS011;61650;48.882;2.092;2022-09-09T11:14:30;2.53;;;1.30;;
51558;SDS011;61650;48.882;2.092;2022-09-09T11:17:54;5.43;;;1.73;;
51558;SDS011;61650;48.882;2.092;2022-09-09T11:20:12;4.27;;;2.00;;
51558;SDS011;61650;48.882;2.092;2022-09-09T11:22:53;3.47;;;1.70;;
51558;SDS011;61650;48.882;2.092;2022-09-09T11:25:29;3.87;;;1.73;;
51558;SDS011;61650;48.882;2.092;2022-09-09T11:42:07;3.50;;;1.50;;
51558;SDS011;61650;48.882;2.092;2022-09-09T11:44:43;7.53;;;1.53;;
51558;SDS011;61650;48.882;2.092;2022-09-09T11:47:20;2.80;;;1.50;;
51558;SDS011;61650;48.882;2.092;2022-09-09T11:55:38;5.03;;;1.53;;
51558;SDS011;61650;48.882;2.092;2022-09-09T12:00:40;3.20;;;1.60;;
51558;SDS011;61650;48.882;2.092;2022-09-09T12:06:09;4.70;;;1.87;;
51558;SDS011;61650;48.882;2.092;2022-09-09T12:08:36;5.17;;;2.27;;
51558;SDS011;61650;48.882;2.092;2022-09-09T12:11:05;4.80;;;1.80;;
51558;SDS011;61650;48.882;2.092;2022-09-09T12:13:31;5.10;;;2.10;;
51558;SDS011;61650;48.882;2.092;2022-09-09T12:15:58;6.53;;;2.13;;
51558;SDS011;61650;48.882;2.092;2022-09-09T12:18:35;5.17;;;1.93;;
51558;SDS011;61650;48.882;2.092;2022-09-09T12:24:03;4.80;;;2.20;;
51558;SDS011;61650;48.882;2.092;2022-09-09T12:26:36;6.80;;;2.13;;
51558;SDS011;61650;48.882;2.092;2022-09-09T12:31:47;6.83;;;2.53;;
51558;SDS011;61650;48.882;2.092;2022-09-09T12:34:41;9.93;;;2.73;;
51558;SDS011;61650;48.882;2.092;2022-09-09T12:42:29;5.83;;;2.60;;
51558;SDS011;61650;48.882;2.092;2022-09-09T12:45:01;5.90;;;2.70;;
51558;SDS011;61650;48.882;2.092;2022-09-09T12:47:34;8.07;;;2.63;;
51558;SDS011;61650;48.882;2.092;2022-09-09T12:50:19;4.27;;;2.17;;
51558;SDS011;61650;48.882;2.092;2022-09-09T12:52:54;5.37;;;2.60;;
51558;SDS011;61650;48.882;2.092;2022-09-09T12:55:30;8.40;;;4.33;;
51558;SDS011;61650;48.882;2.092;2022-09-09T12:57:58;4.20;;;2.50;;
51558;SDS011;61650;48.882;2.092;2022-09-09T13:00:29;8.10;;;3.13;;
51558;SDS011;61650;48.882;2.092;2022-09-09T13:02:57;5.20;;;2.60;;
51558;SDS011;61650;48.882;2.092;2022-09-09T13:05:42;6.07;;;2.67;;
51558;SDS011;61650;48.882;2.092;2022-09-09T13:08:09;4.27;;;2.50;;
51558;SDS011;61650;48.882;2.092;2022-09-09T13:10:41;4.10;;;3.20;;
51558;SDS011;61650;48.882;2.092;2022-09-09T13:13:20;6.33;;;2.87;;
51558;SDS011;61650;48.882;2.092;2022-09-09T13:16:04;7.80;;;3.83;;
51558;SDS011;61650;48.882;2.092;2022-09-09T13:18:34;4.90;;;2.53;;
51558;SDS011;61650;48.882;2.092;2022-09-09T13:21:03;7.90;;;4.00;;
51558;SDS011;61650;48.882;2.092;2022-09-09T13:23:29;5.03;;;2.80;;
51558;SDS011;61650;48.882;2.092;2022-09-09T13:26:01;6.30;;;3.00;;
51558;SDS011;61650;48.882;2.092;2022-09-09T13:28:32;5.37;;;2.10;;
51558;SDS011;61650;48.882;2.092;2022-09-09T13:31:03;4.07;;;2.57;;
51558;SDS011;61650;48.882;2.092;2022-09-09T13:35:59;4.30;;;2.57;;
51558;SDS011;61650;48.882;2.092;2022-09-09T13:38:31;3.90;;;2.70;;
51558;SDS011;61650;48.882;2.092;2022-09-09T13:41:00;5.13;;;2.13;;
51558;SDS011;61650;48.882;2.092;2022-09-09T13:43:38;6.03;;;2.60;;
51558;SDS011;61650;48.882;2.092;2022-09-09T13:49:03;5.20;;;2.27;;
51558;SDS011;61650;48.882;2.092;2022-09-09T13:51:49;3.13;;;2.10;;
51558;SDS011;61650;48.882;2.092;2022-09-09T13:54:18;5.33;;;2.20;;
51558;SDS011;61650;48.882;2.092;2022-09-09T13:56:45;3.90;;;2.47;;
51558;SDS011;61650;48.882;2.092;2022-09-09T13:59:11;4.77;;;2.20;;
51558;SDS011;61650;48.882;2.092;2022-09-09T14:01:43;4.43;;;2.80;;
51558;SDS011;61650;48.882;2.092;2022-09-09T14:04:09;6.57;;;2.77;;
51558;SDS011;61650;48.882;2.092;2022-09-09T14:06:36;7.13;;;3.93;;
51558;SDS011;61650;48.882;2.092;2022-09-09T14:09:03;5.67;;;2.80;;
51558;SDS011;61650;48.882;2.092;2022-09-09T14:11:30;3.17;;;2.10;;
51558;SDS011;61650;48.882;2.092;2022-09-09T14:13:55;4.43;;;2.53;;
51558;SDS011;61650;48.882;2.092;2022-09-09T14:16:21;5.70;;;2.27;;
51558;SDS011;61650;48.882;2.092;2022-09-09T14:18:47;3.50;;;2.77;;
51558;SDS011;61650;48.882;2.092;2022-09-09T14:21:12;6.20;;;2.30;;
51558;SDS011;61650;48.882;2.092;2022-09-09T14:23:39;3.00;;;2.30;;
51558;SDS011;61650;48.882;2.092;2022-09-09T14:26:07;3.57;;;2.47;;
51558;SDS011;61650;48.882;2.092;2022-09-09T14:28:34;4.00;;;2.57;;
51558;SDS011;61650;48.882;2.092;2022-09-09T14:31:01;6.27;;;2.70;;
51558;SDS011;61650;48.882;2.092;2022-09-09T14:33:28;5.37;;;2.60;;
51558;SDS011;61650;48.882;2.092;2022-09-09T14:35:58;6.37;;;2.53;;
51558;SDS011;61650;48.882;2.092;2022-09-09T14:38:29;4.30;;;2.53;;
51558;SDS011;61650;48.882;2.092;2022-09-09T14:40:56;5.30;;;2.27;;
51558;SDS011;61650;48.882;2.092;2022-09-09T14:43:23;2.60;;;2.00;;
51558;SDS011;61650;48.882;2.092;2022-09-09T14:45:49;4.00;;;2.30;;
51558;SDS011;61650;48.882;2.092;2022-09-09T14:48:16;3.17;;;1.57;;
51558;SDS011;61650;48.882;2.092;2022-09-09T14:50:42;4.30;;;2.13;;
51558;SDS011;61650;48.882;2.092;2022-09-09T14:53:08;4.00;;;2.27;;
51558;SDS011;61650;48.882;2.092;2022-09-09T14:55:35;5.23;;;2.20;;
51558;SDS011;61650;48.882;2.092;2022-09-09T14:58:02;4.07;;;2.00;;
51558;SDS011;61650;48.882;2.092;2022-09-09T15:00:28;3.57;;;2.23;;
51558;SDS011;61650;48.882;2.092;2022-09-09T15:02:54;3.60;;;1.93;;
51558;SDS011;61650;48.882;2.092;2022-09-09T15:05:20;3.30;;;1.60;;
51558;SDS011;61650;48.882;2.092;2022-09-09T15:07:46;5.70;;;1.97;;
51558;SDS011;61650;48.882;2.092;2022-09-09T15:10:13;4.17;;;1.90;;
51558;SDS011;61650;48.882;2.092;2022-09-09T15:12:39;4.77;;;2.20;;
51558;SDS011;61650;48.882;2.092;2022-09-09T15:15:06;6.30;;;2.10;;
51558;SDS011;61650;48.882;2.092;2022-09-09T15:17:34;3.43;;;1.70;;
51558;SDS011;61650;48.882;2.092;2022-09-09T15:20:01;3.30;;;1.90;;
51558;SDS011;61650;48.882;2.092;2022-09-09T15:22:33;3.03;;;1.90;;
51558;SDS011;61650;48.882;2.092;2022-09-09T15:24:59;5.33;;;2.00;;
51558;SDS011;61650;48.882;2.092;2022-09-09T15:27:24;3.13;;;1.67;;
51558;SDS011;61650;48.882;2.092;2022-09-09T15:29:50;2.80;;;1.83;;
51558;SDS011;61650;48.882;2.092;2022-09-09T15:32:16;4.80;;;2.07;;
51558;SDS011;61650;48.882;2.092;2022-09-09T15:34:42;2.50;;;1.63;;
51558;SDS011;61650;48.882;2.092;2022-09-09T15:37:11;3.30;;;2.00;;
51558;SDS011;61650;48.882;2.092;2022-09-09T15:39:39;4.53;;;2.07;;
51558;SDS011;61650;48.882;2.092;2022-09-09T15:42:05;3.00;;;1.73;;
51558;SDS011;61650;48.882;2.092;2022-09-09T15:44:41;3.73;;;1.83;;
51558;SDS011;61650;48.882;2.092;2022-09-09T15:47:09;3.67;;;1.80;;
51558;SDS011;61650;48.882;2.092;2022-09-09T15:49:37;4.03;;;2.00;;
51558;SDS011;61650;48.882;2.092;2022-09-09T15:52:03;3.80;;;2.00;;
51558;SDS011;61650;48.882;2.092;2022-09-09T15:54:33;3.00;;;1.60;;
51558;SDS011;61650;48.882;2.092;2022-09-09T15:57:01;3.90;;;2.20;;
51558;SDS011;61650;48.882;2.092;2022-09-09T15:59:29;3.97;;;1.90;;
51558;SDS011;61650;48.882;2.092;2022-09-09T16:01:56;3.90;;;1.70;;
51558;SDS011;61650;48.882;2.092;2022-09-09T16:04:23;4.10;;;1.90;;
51558;SDS011;61650;48.882;2.092;2022-09-09T16:06:53;3.73;;;1.80;;
51558;SDS011;61650;48.882;2.092;2022-09-09T16:09:20;3.93;;;2.30;;
51558;SDS011;61650;48.882;2.092;2022-09-09T16:11:46;2.50;;;2.03;;
51558;SDS011;61650;48.882;2.092;2022-09-09T16:14:13;3.30;;;1.93;;
51558;SDS011;61650;48.882;2.092;2022-09-09T16:16:40;4.07;;;1.90;;
51558;SDS011;61650;48.882;2.092;2022-09-09T16:19:07;6.13;;;2.30;;
51558;SDS011;61650;48.882;2.092;2022-09-09T16:21:42;4.20;;;2.07;;
51558;SDS011;61650;48.882;2.092;2022-09-09T16:24:10;3.90;;;2.40;;
51558;SDS011;61650;48.882;2.092;2022-09-09T16:26:37;4.80;;;2.30;;
51558;SDS011;61650;48.882;2.092;2022-09-09T16:29:05;4.63;;;2.33;;
51558;SDS011;61650;48.882;2.092;2022-09-09T16:31:31;2.77;;;2.10;;
51558;SDS011;61650;48.882;2.092;2022-09-09T16:33:57;4.80;;;2.40;;
51558;SDS011;61650;48.882;2.092;2022-09-09T16:36:24;3.97;;;2.00;;
51558;SDS011;61650;48.882;2.092;2022-09-09T16:38:56;3.10;;;2.20;;
51558;SDS011;61650;48.882;2.092;2022-09-09T16:41:23;5.90;;;3.37;;
51558;SDS011;61650;48.882;2.092;2022-09-09T16:43:55;4.07;;;2.30;;
51558;SDS011;61650;48.882;2.092;2022-09-09T16:46:22;4.70;;;2.60;;
51558;SDS011;61650;48.882;2.092;2022-09-09T16:48:49;2.90;;;2.20;;
51558;SDS011;61650;48.882;2.092;2022-09-09T16:51:17;3.87;;;2.10;;
51558;SDS011;61650;48.882;2.092;2022-09-09T16:53:44;5.23;;;2.40;;
51558;SDS011;61650;48.882;2.092;2022-09-09T16:56:14;2.80;;;2.10;;
51558;SDS011;61650;48.882;2.092;2022-09-09T16:58:48;3.07;;;1.87;;
51558;SDS011;61650;48.882;2.092;2022-09-09T17:01:20;3.97;;;2.10;;
51558;SDS011;61650;48.882;2.092;2022-09-09T17:03:46;4.47;;;2.10;;
51558;SDS011;61650;48.882;2.092;2022-09-09T17:06:12;3.67;;;2.17;;
51558;SDS011;61650;48.882;2.092;2022-09-09T17:08:39;2.43;;;2.23;;
51558;SDS011;61650;48.882;2.092;2022-09-09T17:11:11;3.27;;;2.10;;
51558;SDS011;61650;48.882;2.092;2022-09-09T17:13:42;4.90;;;2.00;;
51558;SDS011;61650;48.882;2.092;2022-09-09T17:16:08;3.30;;;2.10;;
51558;SDS011;61650;48.882;2.092;2022-09-09T17:18:35;3.70;;;2.30;;
51558;SDS011;61650;48.882;2.092;2022-09-09T17:21:05;2.40;;;1.90;;
51558;SDS011;61650;48.882;2.092;2022-09-09T17:23:33;2.23;;;2.00;;
51558;SDS011;61650;48.882;2.092;2022-09-09T17:26:02;4.63;;;1.87;;